sensor_id;sensor_type;location;lat;lon;timestamp;P1;durP1;ratioP1;P2;durP2;ratioP2
11082;SDS011;5595;50.186;8.468;2023-08-08T00:01:13;1.73;;;0.40;;
11082;SDS011;5595;50.186;8.468;2023-08-08T00:03:43;0.47;;;0.47;;
11082;SDS011;5595;50.186;8.468;2023-08-08T00:06:10;0.73;;;0.50;;
11082;SDS011;5595;50.186;8.468;2023-08-08T00:08:36;0.77;;;0.50;;
11082;SDS011;5595;50.186;8.468;2023-08-08T00:11:05;1.23;;;0.40;;
11082;SDS011;5595;50.186;8.468;2023-08-08T00:13:33;0.40;;;0.40;;
11082;SDS011;5595;50.186;8.468;2023-08-08T00:16:00;0.77;;;0.40;;
11082;SDS011;5595;50.186;8.468;2023-08-08T00:18:27;0.43;;;0.40;;
11082;SDS011;5595;50.186;8.468;2023-08-08T00:20:54;0.30;;;0.30;;
11082;SDS011;5595;50.186;8.468;2023-08-08T00:23:21;0.87;;;0.27;;
11082;SDS011;5595;50.186;8.468;2023-08-08T00:25:47;0.73;;;0.50;;
11082;SDS011;5595;50.186;8.468;2023-08-08T00:28:17;1.37;;;0.60;;
11082;SDS011;5595;50.186;8.468;2023-08-08T00:30:44;0.30;;;0.30;;
11082;SDS011;5595;50.186;8.468;2023-08-08T00:33:10;0.73;;;0.40;;
11082;SDS011;5595;50.186;8.468;2023-08-08T00:35:37;1.50;;;0.40;;
11082;SDS011;5595;50.186;8.468;2023-08-08T00:38:04;1.00;;;0.60;;
11082;SDS011;5595;50.186;8.468;2023-08-08T00:40:31;1.93;;;0.50;;
11082;SDS011;5595;50.186;8.468;2023-08-08T00:42:58;0.40;;;0.40;;
11082;SDS011;5595;50.186;8.468;2023-08-08T00:45:26;0.50;;;0.40;;
11082;SDS011;5595;50.186;8.468;2023-08-08T00:47:53;0.77;;;0.63;;
11082;SDS011;5595;50.186;8.468;2023-08-08T00:50:20;0.33;;;0.33;;
11082;SDS011;5595;50.186;8.468;2023-08-08T00:52:47;3.80;;;0.50;;
11082;SDS011;5595;50.186;8.468;2023-08-08T00:55:14;0.40;;;0.40;;
11082;SDS011;5595;50.186;8.468;2023-08-08T00:57:41;0.90;;;0.50;;
11082;SDS011;5595;50.186;8.468;2023-08-08T01:00:08;2.53;;;0.27;;
11082;SDS011;5595;50.186;8.468;2023-08-08T01:02:37;0.30;;;0.30;;
11082;SDS011;5595;50.186;8.468;2023-08-08T01:05:04;2.53;;;0.40;;
11082;SDS011;5595;50.186;8.468;2023-08-08T01:07:33;0.30;;;0.30;;
11082;SDS011;5595;50.186;8.468;2023-08-08T01:10:06;0.87;;;0.50;;
11082;SDS011;5595;50.186;8.468;2023-08-08T01:12:37;3.33;;;0.50;;
11082;SDS011;5595;50.186;8.468;2023-08-08T01:15:07;0.50;;;0.50;;
11082;SDS011;5595;50.186;8.468;2023-08-08T01:17:35;0.30;;;0.30;;
11082;SDS011;5595;50.186;8.468;2023-08-08T01:20:03;1.27;;;0.40;;
11082;SDS011;5595;50.186;8.468;2023-08-08T01:22:33;0.43;;;0.43;;
11082;SDS011;5595;50.186;8.468;2023-08-08T01:25:04;1.53;;;0.50;;
11082;SDS011;5595;50.186;8.468;2023-08-08T01:27:38;3.80;;;0.40;;
11082;SDS011;5595;50.186;8.468;2023-08-08T01:30:06;0.23;;;0.23;;
11082;SDS011;5595;50.186;8.468;2023-08-08T01:32:34;2.10;;;0.70;;
11082;SDS011;5595;50.186;8.468;2023-08-08T01:35:00;1.00;;;0.50;;
11082;SDS011;5595;50.186;8.468;2023-08-08T01:37:29;0.40;;;0.40;;
11082;SDS011;5595;50.186;8.468;2023-08-08T01:39:59;1.00;;;0.50;;
11082;SDS011;5595;50.186;8.468;2023-08-08T01:42:28;1.37;;;0.40;;
11082;SDS011;5595;50.186;8.468;2023-08-08T01:44:56;0.50;;;0.50;;
11082;SDS011;5595;50.186;8.468;2023-08-08T01:47:23;1.67;;;0.37;;
11082;SDS011;5595;50.186;8.468;2023-08-08T01:49:50;0.93;;;0.60;;
11082;SDS011;5595;50.186;8.468;2023-08-08T01:52:17;4.63;;;0.60;;
11082;SDS011;5595;50.186;8.468;2023-08-08T01:54:44;0.60;;;0.60;;
11082;SDS011;5595;50.186;8.468;2023-08-08T01:57:10;2.53;;;0.70;;
11082;SDS011;5595;50.186;8.468;2023-08-08T01:59:39;1.07;;;0.50;;
11082;SDS011;5595;50.186;8.468;2023-08-08T02:02:06;1.10;;;0.70;;
11082;SDS011;5595;50.186;8.468;2023-08-08T02:04:32;0.63;;;0.63;;
11082;SDS011;5595;50.186;8.468;2023-08-08T02:06:59;2.60;;;0.40;;
11082;SDS011;5595;50.186;8.468;2023-08-08T02:09:26;3.40;;;0.60;;
11082;SDS011;5595;50.186;8.468;2023-08-08T02:12:02;3.50;;;0.80;;
11082;SDS011;5595;50.186;8.468;2023-08-08T02:14:29;1.70;;;0.60;;
11082;SDS011;5595;50.186;8.468;2023-08-08T02:16:58;1.43;;;0.50;;
11082;SDS011;5595;50.186;8.468;2023-08-08T02:19:24;0.40;;;0.40;;
11082;SDS011;5595;50.186;8.468;2023-08-08T02:21:51;2.30;;;0.87;;
11082;SDS011;5595;50.186;8.468;2023-08-08T02:24:18;1.20;;;0.60;;
11082;SDS011;5595;50.186;8.468;2023-08-08T02:26:45;0.50;;;0.50;;
11082;SDS011;5595;50.186;8.468;2023-08-08T02:29:11;1.17;;;0.53;;
11082;SDS011;5595;50.186;8.468;2023-08-08T02:31:38;4.43;;;0.80;;
11082;SDS011;5595;50.186;8.468;2023-08-08T02:34:06;0.70;;;0.70;;
11082;SDS011;5595;50.186;8.468;2023-08-08T02:36:33;0.80;;;0.60;;
11082;SDS011;5595;50.186;8.468;2023-08-08T02:39:00;2.83;;;0.70;;
11082;SDS011;5595;50.186;8.468;2023-08-08T02:41:28;4.30;;;0.80;;
11082;SDS011;5595;50.186;8.468;2023-08-08T02:43:55;1.03;;;0.60;;
11082;SDS011;5595;50.186;8.468;2023-08-08T02:46:21;0.50;;;0.50;;
11082;SDS011;5595;50.186;8.468;2023-08-08T02:48:48;1.60;;;0.63;;
11082;SDS011;5595;50.186;8.468;2023-08-08T02:51:16;0.60;;;0.60;;
11082;SDS011;5595;50.186;8.468;2023-08-08T02:53:43;0.60;;;0.60;;
11082;SDS011;5595;50.186;8.468;2023-08-08T02:56:10;0.93;;;0.70;;
11082;SDS011;5595;50.186;8.468;2023-08-08T02:58:36;5.47;;;0.67;;
11082;SDS011;5595;50.186;8.468;2023-08-08T03:01:03;0.70;;;0.70;;
11082;SDS011;5595;50.186;8.468;2023-08-08T03:03:30;0.40;;;0.40;;
11082;SDS011;5595;50.186;8.468;2023-08-08T03:05:57;0.70;;;0.70;;
11082;SDS011;5595;50.186;8.468;2023-08-08T03:08:25;0.40;;;0.40;;
11082;SDS011;5595;50.186;8.468;2023-08-08T03:10:52;0.60;;;0.60;;
11082;SDS011;5595;50.186;8.468;2023-08-08T03:13:19;1.90;;;0.80;;
11082;SDS011;5595;50.186;8.468;2023-08-08T03:15:47;0.70;;;0.70;;
11082;SDS011;5595;50.186;8.468;2023-08-08T03:18:14;0.57;;;0.57;;
11082;SDS011;5595;50.186;8.468;2023-08-08T03:20:41;1.13;;;0.83;;
11082;SDS011;5595;50.186;8.468;2023-08-08T03:23:07;1.30;;;0.90;;
11082;SDS011;5595;50.186;8.468;2023-08-08T03:25:35;0.73;;;0.73;;
11082;SDS011;5595;50.186;8.468;2023-08-08T03:28:03;1.00;;;0.80;;
11082;SDS011;5595;50.186;8.468;2023-08-08T03:30:30;0.87;;;0.63;;
11082;SDS011;5595;50.186;8.468;2023-08-08T03:32:57;1.30;;;1.00;;
11082;SDS011;5595;50.186;8.468;2023-08-08T03:35:24;0.67;;;0.67;;
11082;SDS011;5595;50.186;8.468;2023-08-08T03:37:50;0.60;;;0.60;;
11082;SDS011;5595;50.186;8.468;2023-08-08T03:40:17;0.53;;;0.40;;
11082;SDS011;5595;50.186;8.468;2023-08-08T03:42:45;0.50;;;0.50;;
11082;SDS011;5595;50.186;8.468;2023-08-08T03:45:12;0.90;;;0.80;;
11082;SDS011;5595;50.186;8.468;2023-08-08T03:47:39;4.60;;;0.90;;
11082;SDS011;5595;50.186;8.468;2023-08-08T03:50:07;0.73;;;0.57;;
11082;SDS011;5595;50.186;8.468;2023-08-08T03:52:35;1.87;;;0.67;;
11082;SDS011;5595;50.186;8.468;2023-08-08T03:55:02;0.70;;;0.70;;
11082;SDS011;5595;50.186;8.468;2023-08-08T03:57:30;1.37;;;0.60;;
11082;SDS011;5595;50.186;8.468;2023-08-08T03:59:58;0.70;;;0.50;;
11082;SDS011;5595;50.186;8.468;2023-08-08T04:02:25;0.60;;;0.60;;
11082;SDS011;5595;50.186;8.468;2023-08-08T04:04:53;0.60;;;0.60;;
11082;SDS011;5595;50.186;8.468;2023-08-08T04:07:19;0.60;;;0.60;;
11082;SDS011;5595;50.186;8.468;2023-08-08T04:09:46;0.60;;;0.60;;
11082;SDS011;5595;50.186;8.468;2023-08-08T04:12:13;0.87;;;0.73;;
11082;SDS011;5595;50.186;8.468;2023-08-08T04:14:40;1.30;;;1.20;;
11082;SDS011;5595;50.186;8.468;2023-08-08T04:17:08;1.03;;;0.70;;
11082;SDS011;5595;50.186;8.468;2023-08-08T04:19:34;0.67;;;0.67;;
11082;SDS011;5595;50.186;8.468;2023-08-08T04:22:01;0.73;;;0.70;;
11082;SDS011;5595;50.186;8.468;2023-08-08T04:24:28;1.03;;;0.83;;
11082;SDS011;5595;50.186;8.468;2023-08-08T04:26:55;0.60;;;0.60;;
11082;SDS011;5595;50.186;8.468;2023-08-08T04:29:22;1.20;;;0.70;;
11082;SDS011;5595;50.186;8.468;2023-08-08T04:31:48;1.27;;;0.77;;
11082;SDS011;5595;50.186;8.468;2023-08-08T04:34:16;1.13;;;0.70;;
11082;SDS011;5595;50.186;8.468;2023-08-08T04:36:43;1.43;;;0.83;;
11082;SDS011;5595;50.186;8.468;2023-08-08T04:39:10;1.33;;;0.80;;
11082;SDS011;5595;50.186;8.468;2023-08-08T04:41:37;0.80;;;0.80;;
11082;SDS011;5595;50.186;8.468;2023-08-08T04:44:04;3.50;;;0.87;;
11082;SDS011;5595;50.186;8.468;2023-08-08T04:46:30;0.60;;;0.60;;
11082;SDS011;5595;50.186;8.468;2023-08-08T04:48:57;0.80;;;0.80;;
11082;SDS011;5595;50.186;8.468;2023-08-08T04:51:25;1.10;;;0.80;;
11082;SDS011;5595;50.186;8.468;2023-08-08T04:53:52;0.60;;;0.50;;
11082;SDS011;5595;50.186;8.468;2023-08-08T04:56:19;0.70;;;0.70;;
11082;SDS011;5595;50.186;8.468;2023-08-08T04:58:45;1.13;;;1.03;;
11082;SDS011;5595;50.186;8.468;2023-08-08T05:01:12;2.27;;;0.70;;
11082;SDS011;5595;50.186;8.468;2023-08-08T05:03:40;0.77;;;0.77;;
11082;SDS011;5595;50.186;8.468;2023-08-08T05:06:07;0.77;;;0.77;;
11082;SDS011;5595;50.186;8.468;2023-08-08T05:08:35;0.77;;;0.70;;
11082;SDS011;5595;50.186;8.468;2023-08-08T05:11:02;0.80;;;0.80;;
11082;SDS011;5595;50.186;8.468;2023-08-08T05:13:29;1.00;;;0.73;;
11082;SDS011;5595;50.186;8.468;2023-08-08T05:15:56;1.50;;;0.70;;
11082;SDS011;5595;50.186;8.468;2023-08-08T05:18:22;1.10;;;0.97;;
11082;SDS011;5595;50.186;8.468;2023-08-08T05:20:49;0.70;;;0.70;;
11082;SDS011;5595;50.186;8.468;2023-08-08T05:23:16;0.70;;;0.70;;
11082;SDS011;5595;50.186;8.468;2023-08-08T05:25:47;2.90;;;1.20;;
11082;SDS011;5595;50.186;8.468;2023-08-08T05:28:14;1.07;;;0.67;;
11082;SDS011;5595;50.186;8.468;2023-08-08T05:30:40;0.70;;;0.70;;
11082;SDS011;5595;50.186;8.468;2023-08-08T05:33:07;1.90;;;1.00;;
11082;SDS011;5595;50.186;8.468;2023-08-08T05:35:34;3.67;;;0.90;;
11082;SDS011;5595;50.186;8.468;2023-08-08T05:38:01;1.33;;;0.90;;
11082;SDS011;5595;50.186;8.468;2023-08-08T05:40:28;1.23;;;0.87;;
11082;SDS011;5595;50.186;8.468;2023-08-08T05:42:56;1.60;;;0.60;;
11082;SDS011;5595;50.186;8.468;2023-08-08T05:45:23;1.07;;;0.60;;
11082;SDS011;5595;50.186;8.468;2023-08-08T05:47:49;0.70;;;0.70;;
11082;SDS011;5595;50.186;8.468;2023-08-08T05:50:16;1.73;;;0.80;;
11082;SDS011;5595;50.186;8.468;2023-08-08T05:52:44;1.60;;;1.00;;
11082;SDS011;5595;50.186;8.468;2023-08-08T05:55:11;0.73;;;0.73;;
11082;SDS011;5595;50.186;8.468;2023-08-08T05:57:37;1.43;;;0.80;;
11082;SDS011;5595;50.186;8.468;2023-08-08T06:00:06;0.57;;;0.57;;
11082;SDS011;5595;50.186;8.468;2023-08-08T06:02:36;0.97;;;0.70;;
11082;SDS011;5595;50.186;8.468;2023-08-08T06:05:03;0.90;;;0.90;;
11082;SDS011;5595;50.186;8.468;2023-08-08T06:07:30;1.57;;;0.73;;
11082;SDS011;5595;50.186;8.468;2023-08-08T06:09:57;0.63;;;0.47;;
11082;SDS011;5595;50.186;8.468;2023-08-08T06:12:24;1.87;;;0.90;;
11082;SDS011;5595;50.186;8.468;2023-08-08T06:14:50;0.70;;;0.70;;
11082;SDS011;5595;50.186;8.468;2023-08-08T06:17:18;0.50;;;0.50;;
11082;SDS011;5595;50.186;8.468;2023-08-08T06:19:45;1.50;;;0.70;;
11082;SDS011;5595;50.186;8.468;2023-08-08T06:22:12;1.05;;;0.77;;
11082;SDS011;5595;50.186;8.468;2023-08-08T06:24:39;1.00;;;0.65;;
11082;SDS011;5595;50.186;8.468;2023-08-08T06:27:06;0.80;;;0.68;;
11082;SDS011;5595;50.186;8.468;2023-08-08T06:29:32;1.27;;;0.65;;
11082;SDS011;5595;50.186;8.468;2023-08-08T06:31:59;0.60;;;0.43;;
11082;SDS011;5595;50.186;8.468;2023-08-08T06:34:27;0.40;;;0.40;;
11082;SDS011;5595;50.186;8.468;2023-08-08T06:36:54;0.68;;;0.40;;
11082;SDS011;5595;50.186;8.468;2023-08-08T06:39:21;0.50;;;0.50;;
11082;SDS011;5595;50.186;8.468;2023-08-08T06:41:47;0.47;;;0.30;;
11082;SDS011;5595;50.186;8.468;2023-08-08T06:44:14;0.47;;;0.40;;
11082;SDS011;5595;50.186;8.468;2023-08-08T06:46:41;1.83;;;0.30;;
11082;SDS011;5595;50.186;8.468;2023-08-08T06:49:08;1.27;;;0.20;;
11082;SDS011;5595;50.186;8.468;2023-08-08T06:51:36;0.30;;;0.30;;
11082;SDS011;5595;50.186;8.468;2023-08-08T06:54:03;0.50;;;0.40;;
11082;SDS011;5595;50.186;8.468;2023-08-08T06:56:30;0.30;;;0.20;;
11082;SDS011;5595;50.186;8.468;2023-08-08T06:58:56;0.50;;;0.30;;
11082;SDS011;5595;50.186;8.468;2023-08-08T07:01:23;0.85;;;0.40;;
11082;SDS011;5595;50.186;8.468;2023-08-08T07:03:50;0.50;;;0.40;;
11082;SDS011;5595;50.186;8.468;2023-08-08T07:06:17;0.43;;;0.30;;
11082;SDS011;5595;50.186;8.468;2023-08-08T07:08:45;0.50;;;0.50;;
11082;SDS011;5595;50.186;8.468;2023-08-08T07:11:12;0.30;;;0.30;;
11082;SDS011;5595;50.186;8.468;2023-08-08T07:13:39;0.55;;;0.30;;
11082;SDS011;5595;50.186;8.468;2023-08-08T07:16:05;0.38;;;0.25;;
11082;SDS011;5595;50.186;8.468;2023-08-08T07:18:32;0.20;;;0.20;;
11082;SDS011;5595;50.186;8.468;2023-08-08T07:20:59;0.20;;;0.20;;
11082;SDS011;5595;50.186;8.468;2023-08-08T07:23:26;0.70;;;0.30;;
11082;SDS011;5595;50.186;8.468;2023-08-08T07:25:54;0.22;;;0.20;;
11082;SDS011;5595;50.186;8.468;2023-08-08T07:28:21;1.75;;;0.38;;
11082;SDS011;5595;50.186;8.468;2023-08-08T07:30:47;0.32;;;0.32;;
11082;SDS011;5595;50.186;8.468;2023-08-08T07:33:14;0.68;;;0.40;;
11082;SDS011;5595;50.186;8.468;2023-08-08T07:35:41;0.77;;;0.40;;
11082;SDS011;5595;50.186;8.468;2023-08-08T07:38:08;0.93;;;0.30;;
11082;SDS011;5595;50.186;8.468;2023-08-08T07:40:35;1.35;;;0.30;;
11082;SDS011;5595;50.186;8.468;2023-08-08T07:43:03;0.57;;;0.40;;
11082;SDS011;5595;50.186;8.468;2023-08-08T07:45:30;0.28;;;0.22;;
11082;SDS011;5595;50.186;8.468;2023-08-08T07:47:57;0.28;;;0.28;;
11082;SDS011;5595;50.186;8.468;2023-08-08T07:50:24;0.80;;;0.28;;
11082;SDS011;5595;50.186;8.468;2023-08-08T07:52:51;0.22;;;0.13;;
11082;SDS011;5595;50.186;8.468;2023-08-08T07:55:17;0.93;;;0.25;;
11082;SDS011;5595;50.186;8.468;2023-08-08T07:57:44;1.35;;;0.40;;
11082;SDS011;5595;50.186;8.468;2023-08-08T08:00:13;1.50;;;0.40;;
11082;SDS011;5595;50.186;8.468;2023-08-08T08:02:43;0.30;;;0.30;;
11082;SDS011;5595;50.186;8.468;2023-08-08T08:05:11;0.35;;;0.30;;
11082;SDS011;5595;50.186;8.468;2023-08-08T08:07:39;0.40;;;0.40;;
11082;SDS011;5595;50.186;8.468;2023-08-08T08:10:07;0.60;;;0.30;;
11082;SDS011;5595;50.186;8.468;2023-08-08T08:12:38;0.40;;;0.20;;
11082;SDS011;5595;50.186;8.468;2023-08-08T08:15:05;0.25;;;0.25;;
11082;SDS011;5595;50.186;8.468;2023-08-08T08:17:34;0.68;;;0.40;;
11082;SDS011;5595;50.186;8.468;2023-08-08T08:20:01;0.30;;;0.30;;
11082;SDS011;5595;50.186;8.468;2023-08-08T08:22:31;0.28;;;0.28;;
11082;SDS011;5595;50.186;8.468;2023-08-08T08:24:58;0.40;;;0.30;;
11082;SDS011;5595;50.186;8.468;2023-08-08T08:27:25;1.10;;;0.30;;
11082;SDS011;5595;50.186;8.468;2023-08-08T08:29:52;0.20;;;0.20;;
11082;SDS011;5595;50.186;8.468;2023-08-08T08:32:18;0.40;;;0.30;;
11082;SDS011;5595;50.186;8.468;2023-08-08T08:34:46;0.20;;;0.20;;
11082;SDS011;5595;50.186;8.468;2023-08-08T08:37:13;0.80;;;0.30;;
11082;SDS011;5595;50.186;8.468;2023-08-08T08:39:40;0.30;;;0.30;;
11082;SDS011;5595;50.186;8.468;2023-08-08T08:42:07;0.50;;;0.30;;
11082;SDS011;5595;50.186;8.468;2023-08-08T08:44:37;0.30;;;0.30;;
11082;SDS011;5595;50.186;8.468;2023-08-08T08:47:05;0.28;;;0.20;;
11082;SDS011;5595;50.186;8.468;2023-08-08T08:49:35;0.70;;;0.40;;
11082;SDS011;5595;50.186;8.468;2023-08-08T08:52:05;0.77;;;0.38;;
11082;SDS011;5595;50.186;8.468;2023-08-08T08:54:32;0.30;;;0.30;;
11082;SDS011;5595;50.186;8.468;2023-08-08T08:57:00;1.00;;;0.40;;
11082;SDS011;5595;50.186;8.468;2023-08-08T08:59:27;0.30;;;0.30;;
11082;SDS011;5595;50.186;8.468;2023-08-08T09:01:54;0.73;;;0.25;;
11082;SDS011;5595;50.186;8.468;2023-08-08T09:04:22;0.30;;;0.30;;
11082;SDS011;5595;50.186;8.468;2023-08-08T09:06:50;2.75;;;0.40;;
11082;SDS011;5595;50.186;8.468;2023-08-08T09:09:19;0.98;;;0.25;;
11082;SDS011;5595;50.186;8.468;2023-08-08T09:11:48;0.32;;;0.20;;
11082;SDS011;5595;50.186;8.468;2023-08-08T09:14:16;0.55;;;0.35;;
11082;SDS011;5595;50.186;8.468;2023-08-08T09:16:44;0.82;;;0.50;;
11082;SDS011;5595;50.186;8.468;2023-08-08T09:19:12;0.40;;;0.22;;
11082;SDS011;5595;50.186;8.468;2023-08-08T09:21:38;0.50;;;0.30;;
11082;SDS011;5595;50.186;8.468;2023-08-08T09:24:06;0.75;;;0.43;;
11082;SDS011;5595;50.186;8.468;2023-08-08T09:26:34;0.60;;;0.30;;
11082;SDS011;5595;50.186;8.468;2023-08-08T09:29:02;0.25;;;0.25;;
11082;SDS011;5595;50.186;8.468;2023-08-08T09:31:29;0.43;;;0.30;;
11082;SDS011;5595;50.186;8.468;2023-08-08T09:33:56;0.57;;;0.30;;
11082;SDS011;5595;50.186;8.468;2023-08-08T09:36:27;0.82;;;0.20;;
11082;SDS011;5595;50.186;8.468;2023-08-08T09:38:54;1.25;;;0.30;;
11082;SDS011;5595;50.186;8.468;2023-08-08T09:41:21;0.20;;;0.20;;
11082;SDS011;5595;50.186;8.468;2023-08-08T09:43:50;0.47;;;0.28;;
11082;SDS011;5595;50.186;8.468;2023-08-08T09:46:18;1.63;;;0.20;;
11082;SDS011;5595;50.186;8.468;2023-08-08T09:48:46;0.30;;;0.30;;
11082;SDS011;5595;50.186;8.468;2023-08-08T09:51:13;0.40;;;0.32;;
11082;SDS011;5595;50.186;8.468;2023-08-08T09:53:41;1.17;;;0.32;;
11082;SDS011;5595;50.186;8.468;2023-08-08T09:56:09;2.17;;;0.35;;
11082;SDS011;5595;50.186;8.468;2023-08-08T09:58:36;0.47;;;0.30;;
11082;SDS011;5595;50.186;8.468;2023-08-08T10:01:04;1.38;;;0.32;;
11082;SDS011;5595;50.186;8.468;2023-08-08T10:03:32;1.27;;;0.30;;
11082;SDS011;5595;50.186;8.468;2023-08-08T10:06:00;0.45;;;0.30;;
11082;SDS011;5595;50.186;8.468;2023-08-08T10:08:29;0.95;;;0.30;;
11082;SDS011;5595;50.186;8.468;2023-08-08T10:10:56;0.30;;;0.20;;
11082;SDS011;5595;50.186;8.468;2023-08-08T10:13:24;0.30;;;0.30;;
11082;SDS011;5595;50.186;8.468;2023-08-08T10:15:52;0.20;;;0.20;;
11082;SDS011;5595;50.186;8.468;2023-08-08T10:18:22;0.73;;;0.35;;
11082;SDS011;5595;50.186;8.468;2023-08-08T10:20:50;1.02;;;0.30;;
11082;SDS011;5595;50.186;8.468;2023-08-08T10:23:18;0.68;;;0.38;;
11082;SDS011;5595;50.186;8.468;2023-08-08T10:25:47;0.50;;;0.30;;
11082;SDS011;5595;50.186;8.468;2023-08-08T10:28:17;0.20;;;0.17;;
11082;SDS011;5595;50.186;8.468;2023-08-08T10:30:46;0.35;;;0.35;;
11082;SDS011;5595;50.186;8.468;2023-08-08T10:33:24;0.47;;;0.30;;
11082;SDS011;5595;50.186;8.468;2023-08-08T10:35:59;0.45;;;0.38;;
11082;SDS011;5595;50.186;8.468;2023-08-08T10:38:30;0.60;;;0.30;;
11082;SDS011;5595;50.186;8.468;2023-08-08T10:41:08;0.40;;;0.20;;
11082;SDS011;5595;50.186;8.468;2023-08-08T10:43:36;0.95;;;0.30;;
11082;SDS011;5595;50.186;8.468;2023-08-08T10:46:06;0.63;;;0.30;;
11082;SDS011;5595;50.186;8.468;2023-08-08T10:48:34;0.38;;;0.30;;
11082;SDS011;5595;50.186;8.468;2023-08-08T10:51:01;0.63;;;0.30;;
11082;SDS011;5595;50.186;8.468;2023-08-08T10:53:28;1.58;;;0.50;;
11082;SDS011;5595;50.186;8.468;2023-08-08T10:55:58;0.50;;;0.30;;
11082;SDS011;5595;50.186;8.468;2023-08-08T10:58:34;0.82;;;0.38;;
11082;SDS011;5595;50.186;8.468;2023-08-08T11:01:02;0.63;;;0.30;;
11082;SDS011;5595;50.186;8.468;2023-08-08T11:03:33;0.43;;;0.35;;
11082;SDS011;5595;50.186;8.468;2023-08-08T11:06:02;1.13;;;0.50;;
11082;SDS011;5595;50.186;8.468;2023-08-08T11:08:30;0.40;;;0.40;;
11082;SDS011;5595;50.186;8.468;2023-08-08T11:10:57;0.20;;;0.20;;
11082;SDS011;5595;50.186;8.468;2023-08-08T11:13:25;2.05;;;0.30;;
11082;SDS011;5595;50.186;8.468;2023-08-08T11:15:52;0.40;;;0.40;;
11082;SDS011;5595;50.186;8.468;2023-08-08T11:18:19;0.82;;;0.35;;
11082;SDS011;5595;50.186;8.468;2023-08-08T11:20:48;0.32;;;0.28;;
11082;SDS011;5595;50.186;8.468;2023-08-08T11:23:15;0.20;;;0.20;;
11082;SDS011;5595;50.186;8.468;2023-08-08T11:25:45;2.75;;;0.40;;
11082;SDS011;5595;50.186;8.468;2023-08-08T11:28:13;1.27;;;0.40;;
11082;SDS011;5595;50.186;8.468;2023-08-08T11:30:41;0.65;;;0.20;;
11082;SDS011;5595;50.186;8.468;2023-08-08T11:33:09;0.22;;;0.20;;
11082;SDS011;5595;50.186;8.468;2023-08-08T11:35:36;0.15;;;0.15;;
11082;SDS011;5595;50.186;8.468;2023-08-08T11:38:05;0.25;;;0.22;;
11082;SDS011;5595;50.186;8.468;2023-08-08T11:40:33;0.30;;;0.28;;
11082;SDS011;5595;50.186;8.468;2023-08-08T11:43:00;0.47;;;0.20;;
11082;SDS011;5595;50.186;8.468;2023-08-08T11:45:27;0.25;;;0.25;;
11082;SDS011;5595;50.186;8.468;2023-08-08T11:47:54;1.30;;;0.40;;
11082;SDS011;5595;50.186;8.468;2023-08-08T11:50:22;0.35;;;0.30;;
11082;SDS011;5595;50.186;8.468;2023-08-08T11:52:53;0.32;;;0.30;;
11082;SDS011;5595;50.186;8.468;2023-08-08T11:55:26;0.70;;;0.30;;
11082;SDS011;5595;50.186;8.468;2023-08-08T11:57:53;0.20;;;0.20;;
11082;SDS011;5595;50.186;8.468;2023-08-08T12:00:26;0.47;;;0.47;;
11082;SDS011;5595;50.186;8.468;2023-08-08T12:02:54;0.50;;;0.30;;
11082;SDS011;5595;50.186;8.468;2023-08-08T12:05:22;0.80;;;0.30;;
11082;SDS011;5595;50.186;8.468;2023-08-08T12:07:48;1.08;;;0.30;;
11082;SDS011;5595;50.186;8.468;2023-08-08T12:10:17;0.45;;;0.30;;
11082;SDS011;5595;50.186;8.468;2023-08-08T12:12:46;0.40;;;0.30;;
11082;SDS011;5595;50.186;8.468;2023-08-08T12:15:19;0.30;;;0.30;;
11082;SDS011;5595;50.186;8.468;2023-08-08T12:17:46;1.13;;;0.60;;
11082;SDS011;5595;50.186;8.468;2023-08-08T12:20:14;0.25;;;0.25;;
11082;SDS011;5595;50.186;8.468;2023-08-08T12:22:41;2.25;;;0.50;;
11082;SDS011;5595;50.186;8.468;2023-08-08T12:25:08;0.38;;;0.38;;
11082;SDS011;5595;50.186;8.468;2023-08-08T12:27:35;0.40;;;0.32;;
11082;SDS011;5595;50.186;8.468;2023-08-08T12:30:05;1.40;;;0.40;;
11082;SDS011;5595;50.186;8.468;2023-08-08T12:32:33;1.00;;;0.50;;
11082;SDS011;5595;50.186;8.468;2023-08-08T12:35:00;1.33;;;0.30;;
11082;SDS011;5595;50.186;8.468;2023-08-08T12:37:27;0.32;;;0.22;;
11082;SDS011;5595;50.186;8.468;2023-08-08T12:39:53;0.55;;;0.30;;
11082;SDS011;5595;50.186;8.468;2023-08-08T12:42:20;1.35;;;0.28;;
11082;SDS011;5595;50.186;8.468;2023-08-08T12:44:47;0.38;;;0.30;;
11082;SDS011;5595;50.186;8.468;2023-08-08T12:47:17;0.47;;;0.40;;
11082;SDS011;5595;50.186;8.468;2023-08-08T12:49:45;0.30;;;0.30;;
11082;SDS011;5595;50.186;8.468;2023-08-08T12:52:12;1.55;;;0.50;;
11082;SDS011;5595;50.186;8.468;2023-08-08T12:54:39;0.73;;;0.30;;
11082;SDS011;5595;50.186;8.468;2023-08-08T12:57:09;0.30;;;0.20;;
11082;SDS011;5595;50.186;8.468;2023-08-08T12:59:42;0.20;;;0.20;;
11082;SDS011;5595;50.186;8.468;2023-08-08T13:02:08;0.17;;;0.17;;
11082;SDS011;5595;50.186;8.468;2023-08-08T13:04:37;0.30;;;0.30;;
11082;SDS011;5595;50.186;8.468;2023-08-08T13:07:03;0.28;;;0.28;;
11082;SDS011;5595;50.186;8.468;2023-08-08T13:09:32;1.10;;;0.20;;
11082;SDS011;5595;50.186;8.468;2023-08-08T13:11:59;0.77;;;0.40;;
11082;SDS011;5595;50.186;8.468;2023-08-08T13:14:26;0.70;;;0.30;;
11082;SDS011;5595;50.186;8.468;2023-08-08T13:16:53;0.32;;;0.30;;
11082;SDS011;5595;50.186;8.468;2023-08-08T13:19:20;0.63;;;0.35;;
11082;SDS011;5595;50.186;8.468;2023-08-08T13:21:51;0.30;;;0.30;;
11082;SDS011;5595;50.186;8.468;2023-08-08T13:24:19;0.52;;;0.30;;
11082;SDS011;5595;50.186;8.468;2023-08-08T13:26:48;0.30;;;0.28;;
11082;SDS011;5595;50.186;8.468;2023-08-08T13:29:14;0.77;;;0.30;;
11082;SDS011;5595;50.186;8.468;2023-08-08T13:31:41;0.38;;;0.30;;
11082;SDS011;5595;50.186;8.468;2023-08-08T13:34:09;0.38;;;0.30;;
11082;SDS011;5595;50.186;8.468;2023-08-08T13:36:36;0.52;;;0.43;;
11082;SDS011;5595;50.186;8.468;2023-08-08T13:39:04;0.10;;;0.10;;
11082;SDS011;5595;50.186;8.468;2023-08-08T13:41:31;0.40;;;0.20;;
11082;SDS011;5595;50.186;8.468;2023-08-08T13:43:58;0.52;;;0.40;;
11082;SDS011;5595;50.186;8.468;2023-08-08T13:46:25;0.98;;;0.30;;
11082;SDS011;5595;50.186;8.468;2023-08-08T13:48:52;0.65;;;0.20;;
11082;SDS011;5595;50.186;8.468;2023-08-08T13:51:19;0.63;;;0.25;;
11082;SDS011;5595;50.186;8.468;2023-08-08T13:53:46;0.70;;;0.22;;
11082;SDS011;5595;50.186;8.468;2023-08-08T13:56:15;0.22;;;0.20;;
11082;SDS011;5595;50.186;8.468;2023-08-08T13:58:42;0.28;;;0.22;;
11082;SDS011;5595;50.186;8.468;2023-08-08T14:01:09;0.25;;;0.25;;
11082;SDS011;5595;50.186;8.468;2023-08-08T14:03:36;0.20;;;0.20;;
11082;SDS011;5595;50.186;8.468;2023-08-08T14:06:03;0.50;;;0.32;;
11082;SDS011;5595;50.186;8.468;2023-08-08T14:08:34;0.28;;;0.28;;
11082;SDS011;5595;50.186;8.468;2023-08-08T14:11:01;0.20;;;0.17;;
11082;SDS011;5595;50.186;8.468;2023-08-08T14:13:29;1.27;;;0.32;;
11082;SDS011;5595;50.186;8.468;2023-08-08T14:15:55;0.47;;;0.28;;
11082;SDS011;5595;50.186;8.468;2023-08-08T14:18:22;1.83;;;0.30;;
11082;SDS011;5595;50.186;8.468;2023-08-08T14:20:49;3.50;;;0.40;;
11082;SDS011;5595;50.186;8.468;2023-08-08T14:23:16;0.20;;;0.20;;
11082;SDS011;5595;50.186;8.468;2023-08-08T14:25:42;0.35;;;0.20;;
11082;SDS011;5595;50.186;8.468;2023-08-08T14:28:09;0.20;;;0.20;;
11082;SDS011;5595;50.186;8.468;2023-08-08T14:30:37;0.75;;;0.30;;
11082;SDS011;5595;50.186;8.468;2023-08-08T14:33:04;1.45;;;0.30;;
11082;SDS011;5595;50.186;8.468;2023-08-08T14:35:31;0.50;;;0.30;;
11082;SDS011;5595;50.186;8.468;2023-08-08T14:37:58;0.38;;;0.22;;
11082;SDS011;5595;50.186;8.468;2023-08-08T14:40:25;1.00;;;0.22;;
11082;SDS011;5595;50.186;8.468;2023-08-08T14:42:51;0.20;;;0.20;;
11082;SDS011;5595;50.186;8.468;2023-08-08T14:45:18;0.55;;;0.30;;
11082;SDS011;5595;50.186;8.468;2023-08-08T14:47:47;0.98;;;0.20;;
11082;SDS011;5595;50.186;8.468;2023-08-08T14:50:14;0.32;;;0.30;;
11082;SDS011;5595;50.186;8.468;2023-08-08T14:52:41;0.80;;;0.30;;
11082;SDS011;5595;50.186;8.468;2023-08-08T14:55:08;0.38;;;0.20;;
11082;SDS011;5595;50.186;8.468;2023-08-08T14:57:35;0.20;;;0.20;;
11082;SDS011;5595;50.186;8.468;2023-08-08T15:00:02;1.17;;;0.35;;
11082;SDS011;5595;50.186;8.468;2023-08-08T15:02:31;0.47;;;0.30;;